Some context for these numbers.
Go
Some context for these numbers.
Go ipix!
20171219|IFCZF|47|0|381|O
20171219|IFHR|14896|0|35593|O
20171219|IFJPY|4120|0|8835|O
20171219|IFLM|63450206|0|267690830|O
20171219|IFNNF|3575|0|3665|O
20171219|IFNNY|52269|0|110945|O
20171219|IFUE|8000|0|13100|O
20171219|IFXY|226237580|0|348650384|O
20171219|IGEN|3300|0|3300|O
20171219|IGMB|47700|0|163808|O
20171219|IGNE|4989998|0|9306618|O
20171219|IGNG|249|0|3990|O
20171219|IGNT|107333|0|2171325|O
20171219|IGPK|154160|0|837262|O
20171219|IGXT|107681|0|166494|O
20171219|IHHFF|70|0|87|O
20171219|IHIIF|1150|0|5150|O
20171219|IHLDY|7174|0|8810|O
20171219|IHRMF|60|0|60|O
20171219|IHRT|4074|0|9579|O
20171219|IHSFF|9|0|9|O
20171219|IHSRF|27|0|27|O
20171219|IIBK|326|0|2838|O
20171219|IICN|45520|0|65811|O
20171219|IJJP|106000|0|146000|O
20171219|IKTSY|100|0|232|O
20171219|ILHMF|88889|0|176139|O
20171219|ILIU|24100|0|44570|O
20171219|ILUS|31818|0|493973|O
20171219|IMAHF|200|0|400|O
20171219|IMASY|3182|0|12261|O
20171219|IMBBF|140|0|287|O
20171219|IMBBY|27217|0|280724|O
20171219|IMEXF|2904|0|5834|O
20171219|IMLFF|506499|0|1937755|O
20171219|IMMD|12940|0|45236|O
20171219|IMMPF|12500|0|12500|O
20171219|IMMVF|11000|0|26500|O
20171219|IMPHO|3401|0|4741|O
20171219|IMPHP|500|0|1650|O
20171219|IMPUY|18478|0|143246|O
20171219|IMTL|207000|0|738950|O
20171219|IMTV|10570010|0|11240016|O
20171219|IMUN|295020|0|844184|O
20171219|INCC|11230145|0|17530310|O
20171219|INCT|13800000|0|13800403|O
20171219|INCZY|23329|0|40128|O
20171219|INGIY|1523|0|5033|O
20171219|INIS|35000|0|37120|O
20171219|INKW|850|0|20931|O
20171219|INLX|14648|0|253278|O
20171219|INMG|1071100|0|1685250|O
20171219|INND|67570|0|146119|O
20171219|INNMF|36000|0|109250|O
20171219|INNV|320050|0|557579|O
20171219|INNX|486|0|19486|O
20171219|INOH|520000|0|520000|O
20171219|INOL|163|0|7273|O
20171219|INOTF|139280|0|215943|O
20171219|INQD|35194|0|81406|O
20171219|INSEW|1052|0|1155|O
20171219|INTK|85000|0|575050|O
20171219|INTV|995967|0|1947407|O
20171219|INVT|5197|0|49598|O
20171219|INVU|21150|0|22700|O
20171219|IOBCF|350|0|450|O
20171219|IPIX|57557|0|221926|O
20171219|IPPLF|15640|0|20558|O
20171219|IPRC|13345|0|23345|O
20171219|IPXHY|7472|0|12301|O
20171219|IPYYF|603|0|603|O
20171219|IRLD|100000|0|131300|O
20171219|IRLTY|7100|0|7100|O
20171219|ISAPF|75|0|75|O
20171219|ISBG|25000|0|45098|O
20171219|ISCO|6387|0|13984|O
20171219|ISDAY|457|0|1227|O
20171219|ISENF|9350|0|16350|O
20171219|ISGN|1500|0|30616|O
20171219|ISHFF|29|0|29|O
20171219|ISHOF|10|0|1009|O
20171219|ISMAY|7243|0|30073|O
20171219|ISNPY|44521|0|1415924|O
20171219|ISOLF|80699|0|187955|O
20171219|ISRHF|249|0|249|O
20171219|ISRVF|16|0|16|O
20171219|ISRZF|28|0|28|O
20171219|ISUZY|935|0|2676|O
20171219|ISVLF|45875|0|171175|O
20171219|ITBFF|30|0|30|O
20171219|ITCC|10000|0|26499|O
20171219|ITHUF|5895|0|41005|O
20171219|ITJTY|243|0|243|O
20171219|ITKG|127221|0|194393|O
20171219|ITKH|644994|0|2112497|O
20171219|ITLL|50|0|16575|O
20171219|ITMSD|2500|0|34950|O
20171219|ITNS|25000|0|575070|O
20171219|ITOCY|3656|0|6259|O
20171219|ITPOF|3438|0|3568|O
20171219|ITRK|150|0|150|O
Innovation Pharmaceuticals Inc (IPIX) Stock Research Links
Scroll down for more posts ▼
Top 10 Most Recent News Articles
Garden Tech Reinvented: Enter the H5 Pro Mower Welcome to the 21st-century garden, where robotic ingenuity meets a genuine regard for nature. Folks, the Navimow H5 Pro just rolled onto the scene and it’s tearing up the old playbook of garden maintenance. It’s like blending Silicon Valley tech with Jane Goodall’s wildlife sensibilities. We're talking zero-edge...
Continue Reading
A New Chapter in HR Leadership at Graphic Packaging September 8 marks a turning point for Graphic Packaging Holding Company with the appointment of Tatiana Berardinelli as their new Chief Human Resources Officer. As NYSE:GPK positions itself for ambitious growth, Berardinelli stands out for her knack for managing transformations and building cultures that thrive in...
Continue Reading
The Ongoing Alliance Between Finance and Football Well, color me intrigued. XTrend Speed's got their foot in two worlds—a top trading platform and now four years deep into supporting the Argentine Football Association. What's it all about? Primarily, this isn't merely about splashing logos across football kits. It's about syncing prestige, global reach, and excellence....
Continue Reading
Navigating the SQL Server and Kubernetes Combo Well, if anyone tells you managing SQL Servers is a breeze, hand them a screwdriver and watch things turn. Combine that with Kubernetes, and you might just see some heads spinning. Dive into the world of SQL Server management on containers with the help of this webinar from MSSQLTips, DH2i, and Microsoft. It promises to...
Continue Reading
Driving AI Adoption: A Shift Towards Human-Centric Learning McLean & Company has dropped an initiative that’s like laying fresh tracks for AI inclusion in businesses. Dubbed the Human-Centric AI Program, it’s a wake-up call to organizations struggling to shift AI from a novelty to a natural part of operations. This isn’t just about fiddling with AI tools; it’s...
Continue Reading
Conference Spotlight: Endoscopic Brow Lift Plastic surgeons from across the globe are gathering in Crete, Greece, for a conference that promises to shake up the aesthetic world. Among the big names is Dr. John M. Anastasatos, who'll be lifting more than just eyebrows with his presentation on the endoscopic brow lift. This isn't just another facelift spiel—no sir—this...
Continue Reading
MAMMOTION Makes Waves with New Robotic Mowers Gather 'round, folks, because MAMMOTION's making some noise over at IFA 2026 in Berlin. If you've been stuck battling the wild edges of your lawn with a rusty old mower, MAMMOTION might just have the tech to save your weekends—and some grass along the way. This ain't no shiny gadget; it’s a full-on upgrade to lawn war...
Continue Reading
Changing the Game in Rare Earths When Lindian Resources announces a partnership, it's not just window dressing. This time, they've linked arms with Carester SAS for a hefty venture into oxide separation. The scope? An 8,000-tonne REO facility in Kazakhstan, a place already stamped as a geological treasure chest. We're staring at what could potentially be a new dawn for...
Continue Reading
The winds are changing, and this time, it's hydrogen that's blowing into town. Europe may just be on the brink of a major trucking overhaul, driven by a concoction of industry giants and supportive policies. The stage is set for hydrogen trucks to roll out by 2030, aiming to gut traditional fuel options and stack the odds in favor of zero-emission transport. Can you smell...
Continue Reading
Telit Cinterion Takes a Bold Step in U.S. Manufacturing Here's a move you don't see every day: Telit Cinterion, one of the leading players in the IoT scene, is planting its flag firmly in the good ol' U.S. of A. They're ramping up to start churning out 4G and 5G IoT modules right on American soil by October 2026. This isn't just a small-scale ambition, folks. We're...
Continue Reading
Top 5 Most Recently Viewed Articles
Plug Power's Active Role in Investor Engagement Plug Power Inc. (NASDAQ: PLUG) continues to assert its position as a leader in the hydrogen solutions sector through active engagement with the investment community. Recently, the company announced its participation in two critical investor conferences in New York City. This engagement underscores Plug Power’s dedication...
Continue Reading
Group Eleven Resources Corp. and Their Latest Offering Group Eleven Resources Corp. recently announced a significant development in its financing efforts. The company has engaged Cormark Securities Inc. for a bought deal private placement aiming to raise C$5 million. This move is part of their broader strategy to enhance mineral exploration, particularly focusing on the...
Continue Reading
Investor Reaction Following aTyr Pharma's Study Failure Investors have recently experienced significant turbulence following a major announcement from aTyr Pharma, Inc. (NASDAQ: ATYR). The company's shares plunged over 80% after results from the EFZO-FIT trial of efzofitimod, intended to treat pulmonary sarcoidosis, did not meet critical expectations. Understanding the...
Continue Reading
Exploring the Growth of the Medical Gas Blenders Market The global medical gas blenders market is predicted to experience substantial growth in the coming years, with an estimated increase of USD 582 million by 2028. This growth trajectory reflects a compound annual growth rate (CAGR) of 5.42%, largely propelled by an aging population and the rising prevalence of chronic...
Continue Reading
AddSecure's Leadership in Fleet Management AddSecure is a key player in the European fleet management services sector, known for its cutting-edge transport solutions. The company leverages artificial intelligence along with a solid software-as-a-service (SaaS) model, which helps enhance operational efficiency and boosts customer satisfaction through advanced analytics and...
Continue Reading